sensor_id;sensor_type;location;lat;lon;timestamp;P1;durP1;ratioP1;P2;durP2;ratioP2
42682;SDS011;28293;50.930;3.464;2023-04-15T00:00:17;11.77;;;7.18;;
42682;SDS011;28293;50.930;3.464;2023-04-15T00:02:43;10.93;;;7.95;;
42682;SDS011;28293;50.930;3.464;2023-04-15T00:05:09;9.68;;;7.07;;
42682;SDS011;28293;50.930;3.464;2023-04-15T00:07:35;9.05;;;7.30;;
42682;SDS011;28293;50.930;3.464;2023-04-15T00:10:01;10.52;;;7.57;;
42682;SDS011;28293;50.930;3.464;2023-04-15T00:12:28;11.23;;;8.00;;
42682;SDS011;28293;50.930;3.464;2023-04-15T00:14:54;9.82;;;7.63;;
42682;SDS011;28293;50.930;3.464;2023-04-15T00:17:21;10.88;;;7.60;;
42682;SDS011;28293;50.930;3.464;2023-04-15T00:19:47;10.73;;;7.30;;
42682;SDS011;28293;50.930;3.464;2023-04-15T00:22:13;11.68;;;7.32;;
42682;SDS011;28293;50.930;3.464;2023-04-15T00:24:38;10.48;;;7.45;;
42682;SDS011;28293;50.930;3.464;2023-04-15T00:27:04;9.65;;;7.95;;
42682;SDS011;28293;50.930;3.464;2023-04-15T00:29:30;11.18;;;7.28;;
42682;SDS011;28293;50.930;3.464;2023-04-15T00:31:56;11.15;;;8.05;;
42682;SDS011;28293;50.930;3.464;2023-04-15T00:34:22;10.70;;;7.68;;
42682;SDS011;28293;50.930;3.464;2023-04-15T00:36:49;9.73;;;7.70;;
42682;SDS011;28293;50.930;3.464;2023-04-15T00:39:16;11.45;;;7.65;;
42682;SDS011;28293;50.930;3.464;2023-04-15T00:41:42;9.65;;;7.88;;
42682;SDS011;28293;50.930;3.464;2023-04-15T00:44:09;10.23;;;7.45;;
42682;SDS011;28293;50.930;3.464;2023-04-15T00:46:35;10.90;;;7.53;;
42682;SDS011;28293;50.930;3.464;2023-04-15T00:49:03;9.55;;;7.72;;
42682;SDS011;28293;50.930;3.464;2023-04-15T00:51:29;9.65;;;7.68;;
42682;SDS011;28293;50.930;3.464;2023-04-15T00:53:57;9.55;;;7.45;;
42682;SDS011;28293;50.930;3.464;2023-04-15T00:56:24;8.55;;;6.57;;
42682;SDS011;28293;50.930;3.464;2023-04-15T00:58:52;10.50;;;7.70;;
42682;SDS011;28293;50.930;3.464;2023-04-15T01:01:19;10.52;;;7.38;;
42682;SDS011;28293;50.930;3.464;2023-04-15T01:03:47;9.27;;;6.60;;
42682;SDS011;28293;50.930;3.464;2023-04-15T01:06:14;11.20;;;7.00;;
42682;SDS011;28293;50.930;3.464;2023-04-15T01:08:40;8.93;;;6.70;;
42682;SDS011;28293;50.930;3.464;2023-04-15T01:11:07;10.40;;;7.15;;
42682;SDS011;28293;50.930;3.464;2023-04-15T01:13:33;9.10;;;7.22;;
42682;SDS011;28293;50.930;3.464;2023-04-15T01:16:00;9.95;;;7.28;;
42682;SDS011;28293;50.930;3.464;2023-04-15T01:18:27;9.48;;;7.13;;
42682;SDS011;28293;50.930;3.464;2023-04-15T01:20:53;10.00;;;7.20;;
42682;SDS011;28293;50.930;3.464;2023-04-15T01:23:22;8.75;;;6.95;;
42682;SDS011;28293;50.930;3.464;2023-04-15T01:25:48;9.63;;;6.95;;
42682;SDS011;28293;50.930;3.464;2023-04-15T01:28:15;8.98;;;7.07;;
42682;SDS011;28293;50.930;3.464;2023-04-15T01:30:41;12.07;;;7.50;;
42682;SDS011;28293;50.930;3.464;2023-04-15T01:33:07;11.18;;;7.22;;
42682;SDS011;28293;50.930;3.464;2023-04-15T01:35:33;9.20;;;7.07;;
42682;SDS011;28293;50.930;3.464;2023-04-15T01:38:04;9.27;;;6.97;;
42682;SDS011;28293;50.930;3.464;2023-04-15T01:40:31;9.30;;;7.05;;
42682;SDS011;28293;50.930;3.464;2023-04-15T01:42:58;10.20;;;6.80;;
42682;SDS011;28293;50.930;3.464;2023-04-15T01:45:24;8.82;;;6.85;;
42682;SDS011;28293;50.930;3.464;2023-04-15T01:47:49;10.77;;;7.65;;
42682;SDS011;28293;50.930;3.464;2023-04-15T01:50:15;10.65;;;7.85;;
42682;SDS011;28293;50.930;3.464;2023-04-15T01:52:41;11.02;;;7.90;;
42682;SDS011;28293;50.930;3.464;2023-04-15T01:55:07;10.30;;;7.93;;
42682;SDS011;28293;50.930;3.464;2023-04-15T01:57:33;10.48;;;7.47;;
42682;SDS011;28293;50.930;3.464;2023-04-15T01:59:59;12.05;;;8.05;;
42682;SDS011;28293;50.930;3.464;2023-04-15T02:02:25;12.18;;;8.30;;
42682;SDS011;28293;50.930;3.464;2023-04-15T02:04:51;10.13;;;7.45;;
42682;SDS011;28293;50.930;3.464;2023-04-15T02:07:17;9.40;;;7.72;;
42682;SDS011;28293;50.930;3.464;2023-04-15T02:09:43;11.05;;;7.45;;
42682;SDS011;28293;50.930;3.464;2023-04-15T02:12:10;10.80;;;8.10;;
42682;SDS011;28293;50.930;3.464;2023-04-15T02:14:36;12.18;;;8.27;;
42682;SDS011;28293;50.930;3.464;2023-04-15T02:17:02;10.80;;;7.95;;
42682;SDS011;28293;50.930;3.464;2023-04-15T02:19:31;12.10;;;8.27;;
42682;SDS011;28293;50.930;3.464;2023-04-15T02:21:58;10.10;;;8.38;;
42682;SDS011;28293;50.930;3.464;2023-04-15T02:24:25;12.43;;;8.88;;
42682;SDS011;28293;50.930;3.464;2023-04-15T02:26:51;9.82;;;8.13;;
42682;SDS011;28293;50.930;3.464;2023-04-15T02:29:17;9.90;;;7.80;;
42682;SDS011;28293;50.930;3.464;2023-04-15T02:31:42;12.38;;;8.90;;
42682;SDS011;28293;50.930;3.464;2023-04-15T02:34:09;12.48;;;9.15;;
42682;SDS011;28293;50.930;3.464;2023-04-15T02:36:35;12.45;;;9.52;;
42682;SDS011;28293;50.930;3.464;2023-04-15T02:39:01;12.43;;;9.65;;
42682;SDS011;28293;50.930;3.464;2023-04-15T02:41:28;11.70;;;9.77;;
42682;SDS011;28293;50.930;3.464;2023-04-15T02:43:54;12.15;;;9.70;;
42682;SDS011;28293;50.930;3.464;2023-04-15T02:46:20;14.98;;;10.98;;
42682;SDS011;28293;50.930;3.464;2023-04-15T02:48:47;12.05;;;9.93;;
42682;SDS011;28293;50.930;3.464;2023-04-15T02:51:18;12.52;;;9.88;;
42682;SDS011;28293;50.930;3.464;2023-04-15T02:53:45;12.45;;;10.43;;
42682;SDS011;28293;50.930;3.464;2023-04-15T02:56:11;12.30;;;10.27;;
42682;SDS011;28293;50.930;3.464;2023-04-15T02:58:39;11.40;;;10.20;;
42682;SDS011;28293;50.930;3.464;2023-04-15T03:01:05;12.32;;;10.32;;
42682;SDS011;28293;50.930;3.464;2023-04-15T03:03:32;12.30;;;10.18;;
42682;SDS011;28293;50.930;3.464;2023-04-15T03:05:59;12.20;;;9.95;;
42682;SDS011;28293;50.930;3.464;2023-04-15T03:08:24;12.35;;;10.30;;
42682;SDS011;28293;50.930;3.464;2023-04-15T03:10:50;11.30;;;9.57;;
42682;SDS011;28293;50.930;3.464;2023-04-15T03:13:17;12.27;;;9.82;;
42682;SDS011;28293;50.930;3.464;2023-04-15T03:15:47;11.93;;;9.32;;
42682;SDS011;28293;50.930;3.464;2023-04-15T03:18:13;13.88;;;10.45;;
42682;SDS011;28293;50.930;3.464;2023-04-15T03:20:39;14.10;;;10.80;;
42682;SDS011;28293;50.930;3.464;2023-04-15T03:23:04;13.93;;;11.25;;
42682;SDS011;28293;50.930;3.464;2023-04-15T03:25:30;14.82;;;11.18;;
42682;SDS011;28293;50.930;3.464;2023-04-15T03:27:56;13.63;;;11.68;;
42682;SDS011;28293;50.930;3.464;2023-04-15T03:30:22;14.30;;;11.73;;
42682;SDS011;28293;50.930;3.464;2023-04-15T03:32:48;14.75;;;11.90;;
42682;SDS011;28293;50.930;3.464;2023-04-15T03:35:14;15.45;;;12.18;;
42682;SDS011;28293;50.930;3.464;2023-04-15T03:37:39;16.15;;;13.88;;
42682;SDS011;28293;50.930;3.464;2023-04-15T03:40:05;17.58;;;14.57;;
42682;SDS011;28293;50.930;3.464;2023-04-15T03:42:32;17.75;;;15.55;;
42682;SDS011;28293;50.930;3.464;2023-04-15T03:44:57;18.52;;;16.00;;
42682;SDS011;28293;50.930;3.464;2023-04-15T03:47:24;18.15;;;15.63;;
42682;SDS011;28293;50.930;3.464;2023-04-15T03:49:50;18.20;;;14.77;;
42682;SDS011;28293;50.930;3.464;2023-04-15T03:52:16;20.48;;;15.68;;
42682;SDS011;28293;50.930;3.464;2023-04-15T03:54:41;16.10;;;14.38;;
42682;SDS011;28293;50.930;3.464;2023-04-15T03:57:07;21.08;;;16.30;;
42682;SDS011;28293;50.930;3.464;2023-04-15T03:59:33;20.67;;;16.13;;
42682;SDS011;28293;50.930;3.464;2023-04-15T04:01:59;19.63;;;15.70;;
42682;SDS011;28293;50.930;3.464;2023-04-15T04:04:25;20.58;;;16.15;;
42682;SDS011;28293;50.930;3.464;2023-04-15T04:06:50;20.13;;;16.27;;
42682;SDS011;28293;50.930;3.464;2023-04-15T04:09:16;19.80;;;14.98;;
42682;SDS011;28293;50.930;3.464;2023-04-15T04:11:42;18.42;;;14.55;;
42682;SDS011;28293;50.930;3.464;2023-04-15T04:14:09;17.90;;;15.63;;
42682;SDS011;28293;50.930;3.464;2023-04-15T04:16:35;18.73;;;15.95;;
42682;SDS011;28293;50.930;3.464;2023-04-15T04:19:01;18.90;;;16.23;;
42682;SDS011;28293;50.930;3.464;2023-04-15T04:21:26;22.63;;;17.45;;
42682;SDS011;28293;50.930;3.464;2023-04-15T04:23:52;20.73;;;16.25;;
42682;SDS011;28293;50.930;3.464;2023-04-15T04:26:18;20.45;;;16.52;;
42682;SDS011;28293;50.930;3.464;2023-04-15T04:28:44;21.77;;;16.90;;
42682;SDS011;28293;50.930;3.464;2023-04-15T04:31:09;22.23;;;17.70;;
42682;SDS011;28293;50.930;3.464;2023-04-15T04:33:35;25.27;;;18.55;;
42682;SDS011;28293;50.930;3.464;2023-04-15T04:36:01;21.48;;;17.83;;
42682;SDS011;28293;50.930;3.464;2023-04-15T04:38:27;21.90;;;18.52;;
42682;SDS011;28293;50.930;3.464;2023-04-15T04:40:53;23.27;;;18.40;;
42682;SDS011;28293;50.930;3.464;2023-04-15T04:43:18;24.90;;;18.85;;
42682;SDS011;28293;50.930;3.464;2023-04-15T04:45:44;21.67;;;17.55;;
42682;SDS011;28293;50.930;3.464;2023-04-15T04:48:10;22.13;;;17.98;;
42682;SDS011;28293;50.930;3.464;2023-04-15T04:50:36;23.20;;;18.75;;
42682;SDS011;28293;50.930;3.464;2023-04-15T04:53:02;22.48;;;18.30;;
42682;SDS011;28293;50.930;3.464;2023-04-15T04:55:27;22.23;;;17.65;;
42682;SDS011;28293;50.930;3.464;2023-04-15T04:57:53;26.08;;;19.60;;
42682;SDS011;28293;50.930;3.464;2023-04-15T05:00:19;24.33;;;19.55;;
42682;SDS011;28293;50.930;3.464;2023-04-15T05:02:45;24.00;;;19.60;;
42682;SDS011;28293;50.930;3.464;2023-04-15T05:05:11;23.92;;;19.77;;
42682;SDS011;28293;50.930;3.464;2023-04-15T05:07:37;28.55;;;20.60;;
42682;SDS011;28293;50.930;3.464;2023-04-15T05:10:03;27.35;;;21.67;;
42682;SDS011;28293;50.930;3.464;2023-04-15T05:12:30;27.52;;;21.85;;
42682;SDS011;28293;50.930;3.464;2023-04-15T05:14:56;28.40;;;22.30;;
42682;SDS011;28293;50.930;3.464;2023-04-15T05:17:22;27.08;;;23.30;;
42682;SDS011;28293;50.930;3.464;2023-04-15T05:19:48;27.00;;;22.33;;
42682;SDS011;28293;50.930;3.464;2023-04-15T05:22:13;30.77;;;23.80;;
42682;SDS011;28293;50.930;3.464;2023-04-15T05:24:39;27.13;;;23.17;;
42682;SDS011;28293;50.930;3.464;2023-04-15T05:27:05;28.42;;;20.17;;
42682;SDS011;28293;50.930;3.464;2023-04-15T05:29:32;29.45;;;21.65;;
42682;SDS011;28293;50.930;3.464;2023-04-15T05:31:58;29.65;;;22.27;;
42682;SDS011;28293;50.930;3.464;2023-04-15T05:34:24;25.92;;;20.58;;
42682;SDS011;28293;50.930;3.464;2023-04-15T05:36:50;25.10;;;20.80;;
42682;SDS011;28293;50.930;3.464;2023-04-15T05:39:16;27.35;;;19.67;;
42682;SDS011;28293;50.930;3.464;2023-04-15T05:41:42;25.13;;;18.73;;
42682;SDS011;28293;50.930;3.464;2023-04-15T05:44:08;22.58;;;18.55;;
42682;SDS011;28293;50.930;3.464;2023-04-15T05:46:33;22.88;;;17.20;;
42682;SDS011;28293;50.930;3.464;2023-04-15T05:48:59;23.30;;;18.00;;
42682;SDS011;28293;50.930;3.464;2023-04-15T05:51:25;21.80;;;17.40;;
42682;SDS011;28293;50.930;3.464;2023-04-15T05:53:51;21.90;;;16.00;;
42682;SDS011;28293;50.930;3.464;2023-04-15T05:56:17;21.02;;;16.55;;
42682;SDS011;28293;50.930;3.464;2023-04-15T05:58:44;26.55;;;18.13;;
42682;SDS011;28293;50.930;3.464;2023-04-15T06:01:10;20.45;;;16.98;;
42682;SDS011;28293;50.930;3.464;2023-04-15T06:03:36;22.70;;;17.77;;
42682;SDS011;28293;50.930;3.464;2023-04-15T06:06:02;24.48;;;17.77;;
42682;SDS011;28293;50.930;3.464;2023-04-15T06:08:28;23.85;;;18.05;;
42682;SDS011;28293;50.930;3.464;2023-04-15T06:10:54;23.88;;;17.88;;
42682;SDS011;28293;50.930;3.464;2023-04-15T06:13:20;25.33;;;18.45;;
42682;SDS011;28293;50.930;3.464;2023-04-15T06:15:45;24.08;;;19.08;;
42682;SDS011;28293;50.930;3.464;2023-04-15T06:18:11;25.30;;;19.45;;
42682;SDS011;28293;50.930;3.464;2023-04-15T06:20:37;27.25;;;20.85;;
42682;SDS011;28293;50.930;3.464;2023-04-15T06:23:02;22.55;;;18.77;;
42682;SDS011;28293;50.930;3.464;2023-04-15T06:25:28;24.33;;;18.42;;
42682;SDS011;28293;50.930;3.464;2023-04-15T06:27:54;24.38;;;18.95;;
42682;SDS011;28293;50.930;3.464;2023-04-15T06:30:20;22.95;;;18.08;;
42682;SDS011;28293;50.930;3.464;2023-04-15T06:32:45;23.70;;;17.63;;
42682;SDS011;28293;50.930;3.464;2023-04-15T06:35:11;24.50;;;18.33;;
42682;SDS011;28293;50.930;3.464;2023-04-15T06:37:37;21.15;;;17.30;;
42682;SDS011;28293;50.930;3.464;2023-04-15T06:40:02;24.20;;;18.10;;
42682;SDS011;28293;50.930;3.464;2023-04-15T06:42:29;22.80;;;18.20;;
42682;SDS011;28293;50.930;3.464;2023-04-15T06:44:55;22.25;;;17.63;;
42682;SDS011;28293;50.930;3.464;2023-04-15T06:47:21;21.98;;;17.67;;
42682;SDS011;28293;50.930;3.464;2023-04-15T06:49:46;23.88;;;17.00;;
42682;SDS011;28293;50.930;3.464;2023-04-15T06:52:12;19.92;;;16.38;;
42682;SDS011;28293;50.930;3.464;2023-04-15T06:54:38;19.65;;;16.00;;
42682;SDS011;28293;50.930;3.464;2023-04-15T06:57:04;22.90;;;17.55;;
42682;SDS011;28293;50.930;3.464;2023-04-15T06:59:31;21.65;;;15.98;;
42682;SDS011;28293;50.930;3.464;2023-04-15T07:01:56;22.75;;;18.25;;
42682;SDS011;28293;50.930;3.464;2023-04-15T07:04:22;30.25;;;23.45;;
42682;SDS011;28293;50.930;3.464;2023-04-15T07:06:48;27.83;;;21.73;;
42682;SDS011;28293;50.930;3.464;2023-04-15T07:09:14;23.05;;;18.42;;
42682;SDS011;28293;50.930;3.464;2023-04-15T07:11:39;22.92;;;16.38;;
42682;SDS011;28293;50.930;3.464;2023-04-15T07:14:05;20.60;;;16.23;;
42682;SDS011;28293;50.930;3.464;2023-04-15T07:16:31;23.90;;;16.35;;
42682;SDS011;28293;50.930;3.464;2023-04-15T07:18:57;22.45;;;17.10;;
42682;SDS011;28293;50.930;3.464;2023-04-15T07:21:23;24.30;;;17.60;;
42682;SDS011;28293;50.930;3.464;2023-04-15T07:23:49;22.80;;;16.90;;
42682;SDS011;28293;50.930;3.464;2023-04-15T07:26:15;23.65;;;17.90;;
42682;SDS011;28293;50.930;3.464;2023-04-15T07:28:41;26.55;;;17.92;;
42682;SDS011;28293;50.930;3.464;2023-04-15T07:31:07;22.88;;;17.70;;
42682;SDS011;28293;50.930;3.464;2023-04-15T07:33:33;23.10;;;18.02;;
42682;SDS011;28293;50.930;3.464;2023-04-15T07:35:58;24.48;;;17.63;;
42682;SDS011;28293;50.930;3.464;2023-04-15T07:38:24;25.00;;;16.23;;
42682;SDS011;28293;50.930;3.464;2023-04-15T07:40:50;20.60;;;15.90;;
42682;SDS011;28293;50.930;3.464;2023-04-15T07:43:16;21.15;;;16.50;;
42682;SDS011;28293;50.930;3.464;2023-04-15T07:45:42;19.45;;;16.58;;
42682;SDS011;28293;50.930;3.464;2023-04-15T07:48:08;21.75;;;16.70;;
42682;SDS011;28293;50.930;3.464;2023-04-15T07:50:34;23.30;;;17.38;;
42682;SDS011;28293;50.930;3.464;2023-04-15T07:52:59;21.10;;;16.75;;
42682;SDS011;28293;50.930;3.464;2023-04-15T07:55:25;24.00;;;16.88;;
42682;SDS011;28293;50.930;3.464;2023-04-15T07:57:51;21.48;;;17.05;;
42682;SDS011;28293;50.930;3.464;2023-04-15T08:00:17;26.67;;;17.85;;
42682;SDS011;28293;50.930;3.464;2023-04-15T08:02:42;24.38;;;17.70;;
42682;SDS011;28293;50.930;3.464;2023-04-15T08:05:08;22.23;;;17.25;;
42682;SDS011;28293;50.930;3.464;2023-04-15T08:07:37;25.25;;;18.95;;
42682;SDS011;28293;50.930;3.464;2023-04-15T08:10:03;22.73;;;16.40;;
42682;SDS011;28293;50.930;3.464;2023-04-15T08:12:30;22.92;;;16.70;;
42682;SDS011;28293;50.930;3.464;2023-04-15T08:14:56;21.60;;;17.85;;
42682;SDS011;28293;50.930;3.464;2023-04-15T08:17:21;21.25;;;16.05;;
42682;SDS011;28293;50.930;3.464;2023-04-15T08:19:48;21.70;;;15.35;;
42682;SDS011;28293;50.930;3.464;2023-04-15T08:22:13;18.50;;;15.00;;
42682;SDS011;28293;50.930;3.464;2023-04-15T08:24:39;21.00;;;14.75;;
42682;SDS011;28293;50.930;3.464;2023-04-15T08:27:05;19.85;;;14.80;;
42682;SDS011;28293;50.930;3.464;2023-04-15T08:29:32;17.95;;;14.85;;
42682;SDS011;28293;50.930;3.464;2023-04-15T08:31:58;23.27;;;15.73;;
42682;SDS011;28293;50.930;3.464;2023-04-15T08:34:28;21.40;;;16.25;;
42682;SDS011;28293;50.930;3.464;2023-04-15T08:36:54;20.52;;;15.63;;
42682;SDS011;28293;50.930;3.464;2023-04-15T08:39:20;22.58;;;17.13;;
42682;SDS011;28293;50.930;3.464;2023-04-15T08:41:55;22.20;;;15.95;;
42682;SDS011;28293;50.930;3.464;2023-04-15T08:44:32;18.80;;;14.77;;
42682;SDS011;28293;50.930;3.464;2023-04-15T08:47:02;20.35;;;16.02;;
42682;SDS011;28293;50.930;3.464;2023-04-15T08:49:31;19.77;;;14.88;;
42682;SDS011;28293;50.930;3.464;2023-04-15T08:51:59;19.70;;;15.70;;
42682;SDS011;28293;50.930;3.464;2023-04-15T08:54:26;18.60;;;14.23;;
42682;SDS011;28293;50.930;3.464;2023-04-15T08:56:52;19.88;;;14.82;;
42682;SDS011;28293;50.930;3.464;2023-04-15T08:59:19;18.90;;;14.80;;
42682;SDS011;28293;50.930;3.464;2023-04-15T09:01:46;21.13;;;15.88;;
42682;SDS011;28293;50.930;3.464;2023-04-15T09:04:13;18.52;;;14.63;;
42682;SDS011;28293;50.930;3.464;2023-04-15T09:06:41;20.75;;;14.45;;
42682;SDS011;28293;50.930;3.464;2023-04-15T09:09:07;18.45;;;14.23;;
42682;SDS011;28293;50.930;3.464;2023-04-15T09:11:33;18.30;;;14.65;;
42682;SDS011;28293;50.930;3.464;2023-04-15T09:14:00;16.23;;;13.20;;
42682;SDS011;28293;50.930;3.464;2023-04-15T09:16:26;17.63;;;12.52;;
42682;SDS011;28293;50.930;3.464;2023-04-15T09:18:52;19.45;;;13.68;;
42682;SDS011;28293;50.930;3.464;2023-04-15T09:21:18;18.20;;;13.32;;
42682;SDS011;28293;50.930;3.464;2023-04-15T09:23:54;19.35;;;13.43;;
42682;SDS011;28293;50.930;3.464;2023-04-15T09:29:06;16.73;;;13.32;;
42682;SDS011;28293;50.930;3.464;2023-04-15T09:31:35;20.00;;;14.05;;
42682;SDS011;28293;50.930;3.464;2023-04-15T09:34:01;18.95;;;14.70;;
42682;SDS011;28293;50.930;3.464;2023-04-15T09:36:27;18.48;;;15.18;;
42682;SDS011;28293;50.930;3.464;2023-04-15T09:38:57;19.35;;;14.77;;
42682;SDS011;28293;50.930;3.464;2023-04-15T09:41:24;19.48;;;14.98;;
42682;SDS011;28293;50.930;3.464;2023-04-15T09:43:51;17.52;;;14.73;;
42682;SDS011;28293;50.930;3.464;2023-04-15T09:46:17;20.20;;;14.98;;
42682;SDS011;28293;50.930;3.464;2023-04-15T09:48:43;20.67;;;15.23;;
42682;SDS011;28293;50.930;3.464;2023-04-15T09:51:09;23.27;;;15.52;;
42682;SDS011;28293;50.930;3.464;2023-04-15T09:53:35;21.45;;;14.80;;
42682;SDS011;28293;50.930;3.464;2023-04-15T09:56:02;20.00;;;14.57;;
42682;SDS011;28293;50.930;3.464;2023-04-15T09:58:29;19.98;;;14.98;;
42682;SDS011;28293;50.930;3.464;2023-04-15T10:00:56;23.95;;;15.90;;
42682;SDS011;28293;50.930;3.464;2023-04-15T10:03:23;23.02;;;17.33;;
42682;SDS011;28293;50.930;3.464;2023-04-15T10:05:54;24.90;;;17.63;;
42682;SDS011;28293;50.930;3.464;2023-04-15T10:08:22;23.73;;;17.67;;
42682;SDS011;28293;50.930;3.464;2023-04-15T10:10:50;24.60;;;16.92;;
42682;SDS011;28293;50.930;3.464;2023-04-15T10:13:20;25.80;;;18.73;;
42682;SDS011;28293;50.930;3.464;2023-04-15T10:15:55;26.55;;;18.73;;
42682;SDS011;28293;50.930;3.464;2023-04-15T10:18:22;26.60;;;18.20;;
42682;SDS011;28293;50.930;3.464;2023-04-15T10:20:51;23.55;;;17.98;;
42682;SDS011;28293;50.930;3.464;2023-04-15T10:23:17;21.40;;;17.88;;
42682;SDS011;28293;50.930;3.464;2023-04-15T10:25:51;22.02;;;16.92;;
42682;SDS011;28293;50.930;3.464;2023-04-15T10:28:20;22.63;;;16.73;;
42682;SDS011;28293;50.930;3.464;2023-04-15T10:30:49;21.83;;;15.68;;
42682;SDS011;28293;50.930;3.464;2023-04-15T10:33:17;22.23;;;16.88;;
42682;SDS011;28293;50.930;3.464;2023-04-15T10:35:47;21.73;;;16.65;;
42682;SDS011;28293;50.930;3.464;2023-04-15T10:41:14;26.60;;;18.55;;
42682;SDS011;28293;50.930;3.464;2023-04-15T10:49:13;20.70;;;15.73;;
42682;SDS011;28293;50.930;3.464;2023-04-15T10:51:41;17.48;;;12.80;;
42682;SDS011;28293;50.930;3.464;2023-04-15T10:54:30;18.38;;;12.82;;
42682;SDS011;28293;50.930;3.464;2023-04-15T10:59:31;19.70;;;14.02;;
42682;SDS011;28293;50.930;3.464;2023-04-15T11:02:00;18.45;;;13.73;;
42682;SDS011;28293;50.930;3.464;2023-04-15T11:05:04;18.45;;;12.50;;
42682;SDS011;28293;50.930;3.464;2023-04-15T11:07:36;17.02;;;11.30;;
42682;SDS011;28293;50.930;3.464;2023-04-15T11:10:49;15.05;;;11.00;;
42682;SDS011;28293;50.930;3.464;2023-04-15T11:12:52;15.45;;;11.57;;
42682;SDS011;28293;50.930;3.464;2023-04-15T11:17:57;16.35;;;10.73;;
42682;SDS011;28293;50.930;3.464;2023-04-15T11:20:32;14.13;;;10.68;;
42682;SDS011;28293;50.930;3.464;2023-04-15T11:22:58;13.45;;;10.02;;
42682;SDS011;28293;50.930;3.464;2023-04-15T11:25:24;12.40;;;9.13;;
42682;SDS011;28293;50.930;3.464;2023-04-15T11:27:52;12.68;;;8.73;;
42682;SDS011;28293;50.930;3.464;2023-04-15T11:30:19;12.43;;;8.27;;
42682;SDS011;28293;50.930;3.464;2023-04-15T11:32:54;11.50;;;7.20;;
42682;SDS011;28293;50.930;3.464;2023-04-15T11:35:24;11.82;;;7.22;;
42682;SDS011;28293;50.930;3.464;2023-04-15T11:37:50;11.43;;;7.30;;
42682;SDS011;28293;50.930;3.464;2023-04-15T11:40:16;10.23;;;7.10;;
42682;SDS011;28293;50.930;3.464;2023-04-15T11:42:49;10.80;;;6.63;;
42682;SDS011;28293;50.930;3.464;2023-04-15T11:45:30;7.80;;;4.72;;
42682;SDS011;28293;50.930;3.464;2023-04-15T11:48:07;9.75;;;5.38;;
42682;SDS011;28293;50.930;3.464;2023-04-15T11:50:34;10.35;;;5.15;;
42682;SDS011;28293;50.930;3.464;2023-04-15T11:53:01;9.25;;;5.38;;
42682;SDS011;28293;50.930;3.464;2023-04-15T11:55:29;9.55;;;5.35;;
42682;SDS011;28293;50.930;3.464;2023-04-15T11:58:08;7.57;;;4.40;;
42682;SDS011;28293;50.930;3.464;2023-04-15T12:00:36;8.38;;;4.90;;
42682;SDS011;28293;50.930;3.464;2023-04-15T12:03:23;8.20;;;4.88;;
42682;SDS011;28293;50.930;3.464;2023-04-15T12:11:27;9.57;;;6.55;;
42682;SDS011;28293;50.930;3.464;2023-04-15T12:14:12;9.35;;;5.85;;
42682;SDS011;28293;50.930;3.464;2023-04-15T12:16:50;9.65;;;6.53;;
42682;SDS011;28293;50.930;3.464;2023-04-15T12:19:28;8.43;;;6.20;;
42682;SDS011;28293;50.930;3.464;2023-04-15T12:22:12;9.50;;;6.10;;
42682;SDS011;28293;50.930;3.464;2023-04-15T12:24:39;11.48;;;6.70;;
42682;SDS011;28293;50.930;3.464;2023-04-15T12:27:11;10.80;;;5.40;;
42682;SDS011;28293;50.930;3.464;2023-04-15T12:29:38;8.70;;;5.90;;
42682;SDS011;28293;50.930;3.464;2023-04-15T12:32:06;10.00;;;5.90;;
42682;SDS011;28293;50.930;3.464;2023-04-15T12:34:33;8.10;;;5.00;;
42682;SDS011;28293;50.930;3.464;2023-04-15T12:37:01;10.30;;;4.95;;
42682;SDS011;28293;50.930;3.464;2023-04-15T12:39:29;7.88;;;4.60;;
42682;SDS011;28293;50.930;3.464;2023-04-15T12:41:56;8.07;;;4.85;;
42682;SDS011;28293;50.930;3.464;2023-04-15T12:44:24;9.43;;;4.43;;
42682;SDS011;28293;50.930;3.464;2023-04-15T12:46:50;9.13;;;4.50;;
42682;SDS011;28293;50.930;3.464;2023-04-15T12:49:22;7.97;;;5.00;;
42682;SDS011;28293;50.930;3.464;2023-04-15T12:51:49;11.10;;;6.10;;
42682;SDS011;28293;50.930;3.464;2023-04-15T12:54:17;8.98;;;6.70;;
42682;SDS011;28293;50.930;3.464;2023-04-15T12:56:45;9.75;;;5.95;;
42682;SDS011;28293;50.930;3.464;2023-04-15T12:59:12;8.85;;;5.00;;
42682;SDS011;28293;50.930;3.464;2023-04-15T13:01:38;8.50;;;5.20;;
42682;SDS011;28293;50.930;3.464;2023-04-15T13:04:05;10.07;;;5.00;;
42682;SDS011;28293;50.930;3.464;2023-04-15T13:06:31;8.52;;;5.60;;
42682;SDS011;28293;50.930;3.464;2023-04-15T13:08:58;9.48;;;5.95;;
42682;SDS011;28293;50.930;3.464;2023-04-15T13:11:25;10.35;;;6.45;;
42682;SDS011;28293;50.930;3.464;2023-04-15T13:13:54;9.73;;;6.43;;
42682;SDS011;28293;50.930;3.464;2023-04-15T13:16:21;9.57;;;6.22;;
42682;SDS011;28293;50.930;3.464;2023-04-15T13:18:48;10.45;;;6.50;;
42682;SDS011;28293;50.930;3.464;2023-04-15T13:21:14;8.63;;;5.97;;
42682;SDS011;28293;50.930;3.464;2023-04-15T13:23:41;10.85;;;6.90;;
42682;SDS011;28293;50.930;3.464;2023-04-15T13:26:06;8.45;;;6.18;;
42682;SDS011;28293;50.930;3.464;2023-04-15T13:28:32;9.68;;;6.75;;
42682;SDS011;28293;50.930;3.464;2023-04-15T13:30:58;11.82;;;6.72;;
42682;SDS011;28293;50.930;3.464;2023-04-15T13:33:25;10.52;;;6.50;;
42682;SDS011;28293;50.930;3.464;2023-04-15T13:35:51;10.35;;;6.45;;
42682;SDS011;28293;50.930;3.464;2023-04-15T13:38:17;9.57;;;6.95;;
42682;SDS011;28293;50.930;3.464;2023-04-15T13:40:43;9.52;;;6.32;;
42682;SDS011;28293;50.930;3.464;2023-04-15T13:43:09;9.27;;;5.80;;
42682;SDS011;28293;50.930;3.464;2023-04-15T13:45:35;11.13;;;6.35;;
42682;SDS011;28293;50.930;3.464;2023-04-15T13:48:01;9.50;;;5.75;;
42682;SDS011;28293;50.930;3.464;2023-04-15T13:50:27;10.07;;;6.47;;
42682;SDS011;28293;50.930;3.464;2023-04-15T13:52:53;10.18;;;6.65;;
42682;SDS011;28293;50.930;3.464;2023-04-15T13:55:19;11.27;;;8.18;;
42682;SDS011;28293;50.930;3.464;2023-04-15T13:57:45;15.32;;;11.30;;
42682;SDS011;28293;50.930;3.464;2023-04-15T14:00:11;17.27;;;12.90;;
42682;SDS011;28293;50.930;3.464;2023-04-15T14:02:38;17.33;;;12.90;;
42682;SDS011;28293;50.930;3.464;2023-04-15T14:05:05;16.88;;;11.32;;
42682;SDS011;28293;50.930;3.464;2023-04-15T14:07:31;14.70;;;10.48;;
42682;SDS011;28293;50.930;3.464;2023-04-15T14:09:56;15.82;;;11.10;;
42682;SDS011;28293;50.930;3.464;2023-04-15T14:12:22;14.60;;;9.90;;
42682;SDS011;28293;50.930;3.464;2023-04-15T14:14:48;13.55;;;9.95;;
42682;SDS011;28293;50.930;3.464;2023-04-15T14:17:14;14.07;;;8.77;;
42682;SDS011;28293;50.930;3.464;2023-04-15T14:19:39;15.27;;;9.43;;
42682;SDS011;28293;50.930;3.464;2023-04-15T14:22:05;14.13;;;9.80;;
42682;SDS011;28293;50.930;3.464;2023-04-15T14:24:31;14.60;;;8.15;;
42682;SDS011;28293;50.930;3.464;2023-04-15T14:26:57;12.75;;;8.68;;
42682;SDS011;28293;50.930;3.464;2023-04-15T14:29:23;14.07;;;9.55;;
42682;SDS011;28293;50.930;3.464;2023-04-15T14:31:49;13.80;;;9.52;;
42682;SDS011;28293;50.930;3.464;2023-04-15T14:34:15;13.65;;;8.50;;
42682;SDS011;28293;50.930;3.464;2023-04-15T14:36:41;14.20;;;9.43;;
42682;SDS011;28293;50.930;3.464;2023-04-15T14:39:08;14.90;;;9.50;;
42682;SDS011;28293;50.930;3.464;2023-04-15T14:41:34;14.07;;;10.45;;
42682;SDS011;28293;50.930;3.464;2023-04-15T14:44:00;13.52;;;9.05;;
42682;SDS011;28293;50.930;3.464;2023-04-15T14:46:26;13.75;;;8.95;;
42682;SDS011;28293;50.930;3.464;2023-04-15T14:48:52;16.20;;;9.43;;